Time;durP1;ratioP1;P1;durP2;ratioP2;P2;SDS_P1;SDS_P2;PMS_P1;PMS_P2;Temp;Humidity;BMP_temperature;BMP_pressure;BME280_temperature;BME280_humidity;BME280_pressure;Samples;Min_cycle;Max_cycle;Signal;HPM_P1;HPM_P2
2021/01/13 00:01:30;;;;;;;15.75;2.17;;;2.10;98.50;;;;;;5051792;28;20021;-75
2021/01/13 00:03:56;;;;;;;12.90;2.25;;;2.10;98.20;;;;;;5051924;28;20025;-75
2021/01/13 00:06:22;;;;;;;9.25;1.50;;;2.10;98.40;;;;;;5051297;28;20052;-74
2021/01/13 00:08:48;;;;;;;4.93;1.02;;;2.10;98.50;;;;;;5052730;28;20338;-75
2021/01/13 00:11:17;;;;;;;10.30;1.48;;;2.20;98.10;;;;;;5049166;28;20091;-76
2021/01/13 00:13:43;;;;;;;11.80;1.80;;;2.20;98.10;;;;;;5051324;28;20051;-74
2021/01/13 00:16:13;;;;;;;8.23;1.90;;;2.20;98.00;;;;;;5050784;28;20021;-75
2021/01/13 00:18:38;;;;;;;11.55;1.80;;;2.10;98.50;;;;;;5040426;28;20160;-73
2021/01/13 00:21:04;;;;;;;12.32;1.95;;;2.10;98.50;;;;;;5033155;28;20477;-75
2021/01/13 00:23:30;;;;;;;6.07;1.55;;;1.80;99.10;;;;;;5031806;28;20017;-76
2021/01/13 00:25:56;;;;;;;9.27;2.13;;;1.60;99.60;;;;;;5031739;28;20030;-76
2021/01/13 00:28:21;;;;;;;9.75;1.88;;;1.80;99.50;;;;;;5030529;28;20026;-75
2021/01/13 00:30:47;;;;;;;15.80;1.95;;;1.70;99.50;;;;;;5032764;28;20025;-73
2021/01/13 00:33:12;;;;;;;11.98;2.08;;;1.70;99.50;;;;;;5031548;28;20110;-75
2021/01/13 00:35:38;;;;;;;12.30;2.08;;;1.80;99.10;;;;;;5031586;28;20108;-75
2021/01/13 00:38:03;;;;;;;8.93;1.90;;;2.10;98.50;;;;;;5030773;28;20112;-75
2021/01/13 00:40:29;;;;;;;8.70;2.35;;;2.20;98.20;;;;;;5032603;28;20026;-76
2021/01/13 00:42:54;;;;;;;12.95;2.00;;;2.20;98.40;;;;;;5032553;28;20033;-75
2021/01/13 00:45:20;;;;;;;18.20;2.13;;;2.20;98.20;;;;;;5032642;28;20026;-75
2021/01/13 00:47:49;;;;;;;8.48;2.13;;;2.30;97.90;;;;;;5032006;28;20384;-75
2021/01/13 00:50:15;;;;;;;7.27;1.67;;;2.10;98.00;;;;;;5031343;28;20680;-75
2021/01/13 00:52:49;;;;;;;16.00;2.67;;;2.00;98.80;;;;;;5032697;28;20033;-75
2021/01/13 00:55:15;;;;;;;15.30;2.53;;;1.90;99.00;;;;;;5032516;28;20029;-75
2021/01/13 00:57:40;;;;;;;15.35;2.05;;;1.90;98.70;;;;;;5031997;28;20033;-75
2021/01/13 01:00:07;;;;;;;8.35;1.60;;;1.90;98.60;;;;;;5030913;28;20040;-74
2021/01/13 01:02:32;;;;;;;5.75;1.45;;;1.80;98.60;;;;;;5032148;28;20033;-75
2021/01/13 01:04:59;;;;;;;11.73;1.67;;;1.80;98.50;;;;;;5032320;28;20482;-75
2021/01/13 01:07:24;;;;;;;8.70;2.03;;;1.80;98.70;;;;;;5030375;28;20018;-75
2021/01/13 01:09:50;;;;;;;13.43;1.95;;;1.80;98.90;;;;;;5032147;28;20542;-75
2021/01/13 01:12:16;;;;;;;11.15;1.73;;;1.80;98.70;;;;;;5030908;28;20045;-75
2021/01/13 01:14:41;;;;;;;10.23;1.95;;;1.80;98.90;;;;;;5030860;28;20120;-74
2021/01/13 01:17:11;;;;;;;17.20;1.95;;;1.70;99.00;;;;;;5031350;28;20113;-74
2021/01/13 01:19:38;;;;;;;14.65;2.03;;;1.90;98.80;;;;;;5030663;28;20029;-75
2021/01/13 01:22:04;;;;;;;7.07;1.40;;;1.90;98.50;;;;;;5031848;28;20034;-75
2021/01/13 01:24:30;;;;;;;11.23;2.20;;;2.00;98.50;;;;;;5032031;28;20021;-74
2021/01/13 01:26:56;;;;;;;9.75;1.75;;;2.10;98.40;;;;;;5029882;28;20675;-74
2021/01/13 01:29:22;;;;;;;10.77;2.30;;;2.10;98.50;;;;;;5030433;28;20025;-73
2021/01/13 01:31:49;;;;;;;13.68;2.03;;;2.00;98.50;;;;;;5030357;28;20498;-74
2021/01/13 01:34:14;;;;;;;10.55;2.00;;;1.90;98.80;;;;;;5031762;28;20061;-73
2021/01/13 01:36:40;;;;;;;13.88;1.73;;;1.90;98.90;;;;;;5030932;28;20560;-74
2021/01/13 01:39:05;;;;;;;4.53;1.23;;;1.90;99.00;;;;;;5029379;28;20079;-73
2021/01/13 01:41:31;;;;;;;9.60;2.03;;;1.80;99.10;;;;;;5030216;28;20048;-75
2021/01/13 01:43:56;;;;;;;11.82;2.00;;;1.80;99.20;;;;;;5030258;28;20021;-74
2021/01/13 01:46:24;;;;;;;6.97;1.77;;;1.70;99.30;;;;;;5029455;28;20021;-73
2021/01/13 01:48:56;;;;;;;7.25;1.90;;;1.70;99.30;;;;;;5030066;28;20109;-74
2021/01/13 01:51:23;;;;;;;13.88;2.08;;;1.70;99.40;;;;;;5031348;28;20025;-74
2021/01/13 01:54:01;;;;;;;6.82;2.38;;;1.70;99.50;;;;;;5030105;28;20124;-73
2021/01/13 01:56:33;;;;;;;5.53;1.73;;;1.70;99.30;;;;;;5030724;28;20029;-74
2021/01/13 01:59:05;;;;;;;6.88;1.25;;;1.70;99.40;;;;;;5031089;28;20040;-73
2021/01/13 02:01:36;;;;;;;10.45;2.70;;;1.70;99.30;;;;;;5029884;28;20435;-74
2021/01/13 02:04:05;;;;;;;10.70;2.05;;;1.70;99.40;;;;;;5029849;28;20021;-73
2021/01/13 02:06:33;;;;;;;10.93;1.92;;;1.70;99.20;;;;;;5029249;28;20026;-74
2021/01/13 02:08:58;;;;;;;17.25;2.20;;;1.60;99.30;;;;;;5029749;28;20024;-74
2021/01/13 02:11:26;;;;;;;11.60;2.55;;;1.60;99.30;;;;;;5031064;28;20021;-73
2021/01/13 02:13:52;;;;;;;10.73;2.28;;;1.60;99.30;;;;;;5029814;28;20026;-73
2021/01/13 02:16:19;;;;;;;11.75;1.75;;;1.70;99.30;;;;;;5030389;28;20034;-73
2021/01/13 02:18:47;;;;;;;7.78;1.27;;;1.70;99.00;;;;;;5029613;28;20033;-74
2021/01/13 02:21:16;;;;;;;14.07;1.50;;;1.80;98.80;;;;;;5031369;28;20025;-74
2021/01/13 02:23:47;;;;;;;4.35;1.10;;;1.80;98.70;;;;;;5030973;28;20029;-73
2021/01/13 02:26:36;;;;;;;10.05;1.95;;;1.80;98.80;;;;;;5030350;28;20031;-74
2021/01/13 02:29:08;;;;;;;11.45;2.00;;;1.90;98.90;;;;;;5030920;28;20021;-74
2021/01/13 02:31:38;;;;;;;8.88;1.08;;;1.80;99.00;;;;;;5029605;28;20395;-73
2021/01/13 02:34:34;;;;;;;8.25;2.05;;;1.80;98.90;;;;;;5031022;28;20469;-74
2021/01/13 02:37:29;;;;;;;12.07;2.20;;;1.80;99.00;;;;;;5028998;28;20509;-74
2021/01/13 02:39:56;;;;;;;7.90;1.85;;;1.70;99.30;;;;;;5016377;28;20045;-73
2021/01/13 02:42:27;;;;;;;8.68;1.88;;;1.70;99.40;;;;;;5030769;28;20400;-73
2021/01/13 02:45:10;;;;;;;14.35;2.35;;;1.70;99.30;;;;;;5030788;28;20106;-73
2021/01/13 02:47:57;;;;;;;12.13;1.75;;;1.50;99.80;;;;;;5028963;28;20028;-73
2021/01/13 02:50:28;;;;;;;10.13;1.67;;;1.40;99.90;;;;;;5032373;28;20469;-75
2021/01/13 02:53:09;;;;;;;10.65;1.92;;;1.30;99.90;;;;;;5034945;28;20029;-74
2021/01/13 02:55:46;;;;;;;9.25;1.67;;;1.30;99.90;;;;;;5033643;28;20021;-74
2021/01/13 02:58:14;;;;;;;8.07;1.33;;;1.30;99.90;;;;;;5034165;28;20095;-74
2021/01/13 03:00:39;;;;;;;7.95;1.98;;;1.60;99.60;;;;;;5034575;28;20044;-73
2021/01/13 03:03:06;;;;;;;9.10;1.77;;;1.70;99.40;;;;;;5034474;28;20033;-74
2021/01/13 03:05:32;;;;;;;8.02;1.80;;;1.70;99.30;;;;;;5034596;28;20048;-73
2021/01/13 03:07:59;;;;;;;7.68;1.58;;;1.70;99.10;;;;;;5033914;28;20507;-73
2021/01/13 03:10:27;;;;;;;11.30;1.95;;;1.70;99.20;;;;;;5034374;28;20537;-73
2021/01/13 03:13:05;;;;;;;20.13;2.40;;;1.60;99.50;;;;;;5033159;28;20502;-73
2021/01/13 03:15:33;;;;;;;13.52;1.85;;;1.80;99.00;;;;;;5034335;28;20029;-73
2021/01/13 03:18:04;;;;;;;12.45;1.83;;;1.90;98.70;;;;;;5033805;28;20053;-74
2021/01/13 03:20:41;;;;;;;10.95;1.67;;;2.00;98.10;;;;;;5033032;28;20500;-74
2021/01/13 03:23:12;;;;;;;17.60;1.38;;;2.00;98.20;;;;;;5034208;28;20412;-73
2021/01/13 03:25:51;;;;;;;10.93;1.85;;;2.10;98.00;;;;;;5034227;28;20528;-74
2021/01/13 03:28:19;;;;;;;8.40;1.55;;;2.10;97.70;;;;;;5032379;28;20029;-73
2021/01/13 03:30:53;;;;;;;7.55;1.35;;;2.10;97.70;;;;;;5034111;28;20021;-73
2021/01/13 03:33:25;;;;;;;11.13;1.60;;;2.10;97.60;;;;;;5034142;28;20557;-73
2021/01/13 03:36:00;;;;;;;14.05;1.60;;;2.10;97.60;;;;;;5034024;28;20119;-74
2021/01/13 03:38:30;;;;;;;12.70;1.38;;;2.20;97.40;;;;;;5032364;28;20398;-73
2021/01/13 03:41:03;;;;;;;12.40;1.90;;;2.10;97.30;;;;;;5031528;28;20384;-74
2021/01/13 03:43:35;;;;;;;12.20;1.67;;;2.10;97.40;;;;;;5033606;28;20487;-73
2021/01/13 03:46:04;;;;;;;22.23;1.50;;;2.10;97.40;;;;;;5033375;28;20079;-74
2021/01/13 03:48:49;;;;;;;7.93;1.75;;;2.10;97.40;;;;;;5032195;28;20132;-73
2021/01/13 03:51:50;;;;;;;9.07;1.58;;;2.10;97.40;;;;;;5033620;28;20021;-73
2021/01/13 03:54:17;;;;;;;6.85;1.20;;;2.10;97.20;;;;;;5030333;28;20176;-74
2021/01/13 03:57:00;;;;;;;7.55;1.42;;;2.10;97.40;;;;;;5032913;28;20100;-74
2021/01/13 03:59:42;;;;;;;17.38;1.70;;;2.30;97.00;;;;;;5033305;28;20041;-73
2021/01/13 04:02:08;;;;;;;11.10;1.80;;;2.30;97.10;;;;;;5032421;28;20025;-75
2021/01/13 04:04:54;;;;;;;13.07;3.17;;;2.30;96.90;;;;;;5033384;28;20025;-73
2021/01/13 04:07:23;;;;;;;12.95;1.70;;;2.40;96.70;;;;;;5031428;28;20025;-74
2021/01/13 04:09:49;;;;;;;9.45;1.50;;;2.30;96.90;;;;;;5031983;28;20167;-74
2021/01/13 04:12:16;;;;;;;13.70;2.88;;;2.30;96.90;;;;;;5033198;28;20108;-74
2021/01/13 04:14:54;;;;;;;7.53;1.40;;;2.30;96.90;;;;;;5033245;28;20101;-73
2021/01/13 04:17:20;;;;;;;15.88;2.20;;;2.40;96.60;;;;;;5031402;28;20079;-73
2021/01/13 04:19:46;;;;;;;5.47;1.27;;;2.50;96.60;;;;;;5031960;28;20025;-73
2021/01/13 04:22:14;;;;;;;9.10;1.45;;;2.50;96.40;;;;;;5033158;28;20388;-74
2021/01/13 04:24:45;;;;;;;8.60;1.35;;;2.50;96.40;;;;;;5033201;28;20022;-73
2021/01/13 04:27:15;;;;;;;12.10;2.53;;;2.50;96.30;;;;;;5032474;28;20079;-74
2021/01/13 04:29:41;;;;;;;8.88;2.35;;;2.50;96.50;;;;;;5033048;28;20021;-75
2021/01/13 04:32:09;;;;;;;21.08;3.28;;;2.40;96.80;;;;;;5032895;28;20538;-74
2021/01/13 04:34:36;;;;;;;6.80;1.90;;;2.40;96.90;;;;;;5031694;28;20021;-74
2021/01/13 04:37:05;;;;;;;11.38;2.38;;;2.50;96.70;;;;;;5030999;28;20064;-74
2021/01/13 04:39:31;;;;;;;12.63;2.00;;;2.50;96.90;;;;;;5032781;28;20642;-73
2021/01/13 04:42:02;;;;;;;13.32;2.10;;;2.50;96.90;;;;;;5031800;28;20079;-73
2021/01/13 04:44:43;;;;;;;14.07;1.80;;;2.50;96.80;;;;;;5031706;28;20476;-74
2021/01/13 04:47:10;;;;;;;12.32;1.70;;;2.40;96.90;;;;;;5030988;28;20017;-73
2021/01/13 04:49:37;;;;;;;9.63;1.45;;;2.40;97.10;;;;;;5032817;28;20033;-74
2021/01/13 04:52:17;;;;;;;6.68;1.52;;;2.40;96.90;;;;;;5032706;28;20034;-73
2021/01/13 04:54:46;;;;;;;14.95;2.17;;;2.40;97.10;;;;;;5032670;28;20057;-74
2021/01/13 04:57:38;;;;;;;14.07;2.90;;;2.30;97.30;;;;;;5030647;28;20029;-74
2021/01/13 05:00:08;;;;;;;12.10;1.90;;;2.40;97.00;;;;;;5032359;28;20037;-73
2021/01/13 05:03:02;;;;;;;9.75;2.20;;;2.40;96.90;;;;;;5030956;28;20052;-74
2021/01/13 05:05:31;;;;;;;11.65;1.73;;;2.40;97.00;;;;;;5030942;28;20049;-74
2021/01/13 05:08:10;;;;;;;14.20;1.95;;;2.40;96.70;;;;;;5031529;28;20013;-74
2021/01/13 05:10:41;;;;;;;8.43;1.40;;;2.40;96.60;;;;;;5030698;28;20060;-73
2021/01/13 05:13:14;;;;;;;10.00;1.70;;;2.40;96.60;;;;;;5032019;28;20069;-73
2021/01/13 05:15:52;;;;;;;13.30;1.65;;;2.30;96.70;;;;;;5032045;28;20025;-73
2021/01/13 05:18:44;;;;;;;7.93;1.40;;;2.30;96.70;;;;;;5031224;28;20504;-73
2021/01/13 05:21:18;;;;;;;11.70;3.10;;;2.40;96.70;;;;;;5031579;28;20550;-73
2021/01/13 05:23:46;;;;;;;5.45;1.88;;;2.40;96.80;;;;;;5031932;28;20018;-73
2021/01/13 05:26:17;;;;;;;6.03;1.42;;;2.40;96.90;;;;;;5031103;28;20047;-74
2021/01/13 05:28:57;;;;;;;9.02;1.85;;;2.40;97.10;;;;;;5030474;28;20021;-73
2021/01/13 05:31:24;;;;;;;8.23;2.00;;;2.40;97.40;;;;;;5030465;28;20025;-73
2021/01/13 05:33:50;;;;;;;6.32;1.77;;;2.40;97.60;;;;;;5030479;28;20095;-74
2021/01/13 05:36:18;;;;;;;15.27;2.45;;;2.40;98.30;;;;;;5031157;28;20030;-74
2021/01/13 05:39:01;;;;;;;6.78;1.65;;;2.40;98.60;;;;;;5030539;28;20036;-73
2021/01/13 05:41:27;;;;;;;6.22;1.27;;;2.40;98.40;;;;;;5030208;28;20029;-74
2021/01/13 05:43:53;;;;;;;8.95;1.70;;;2.40;98.30;;;;;;5031480;28;20029;-74
2021/01/13 05:46:20;;;;;;;6.90;1.15;;;2.40;98.30;;;;;;5030899;28;20363;-73
2021/01/13 05:48:53;;;;;;;12.10;2.20;;;2.30;98.10;;;;;;5029948;28;20030;-73
2021/01/13 05:51:29;;;;;;;11.50;2.13;;;2.40;97.90;;;;;;5031469;28;20161;-74
2021/01/13 05:53:56;;;;;;;6.93;1.48;;;2.40;97.50;;;;;;5031324;28;20025;-73
2021/01/13 05:56:22;;;;;;;9.55;1.65;;;2.40;97.30;;;;;;5030624;28;20036;-73
2021/01/13 05:58:59;;;;;;;14.35;1.80;;;2.40;96.90;;;;;;5029969;28;20037;-73
2021/01/13 06:01:40;;;;;;;9.48;1.38;;;2.40;96.90;;;;;;5029860;28;20480;-74
2021/01/13 06:04:06;;;;;;;6.93;1.50;;;2.40;96.80;;;;;;5030287;28;20056;-72
2021/01/13 06:06:35;;;;;;;10.57;1.90;;;2.30;96.80;;;;;;5029475;28;20048;-73
2021/01/13 06:09:03;;;;;;;6.20;1.73;;;2.40;96.40;;;;;;5030838;28;20024;-73
2021/01/13 06:11:32;;;;;;;8.07;1.80;;;2.40;96.20;;;;;;5029920;28;20036;-73
2021/01/13 06:14:03;;;;;;;12.23;1.45;;;2.40;96.40;;;;;;5029752;28;20476;-73
2021/01/13 06:16:29;;;;;;;10.57;1.17;;;2.50;96.00;;;;;;5030413;28;20034;-73
2021/01/13 06:18:56;;;;;;;11.18;1.90;;;2.50;96.00;;;;;;5029449;28;20178;-73
2021/01/13 06:21:22;;;;;;;7.18;1.27;;;2.60;95.80;;;;;;5028179;28;20022;-73
2021/01/13 06:23:49;;;;;;;8.65;1.42;;;2.50;96.00;;;;;;5029464;28;20021;-74
2021/01/13 06:26:16;;;;;;;11.48;2.15;;;2.50;95.90;;;;;;5028669;28;20033;-74
2021/01/13 06:29:00;;;;;;;10.32;1.73;;;2.50;95.60;;;;;;5029803;28;20033;-74
2021/01/13 06:31:27;;;;;;;13.23;1.50;;;2.30;96.20;;;;;;5029705;28;20029;-73
2021/01/13 06:34:17;;;;;;;10.45;1.35;;;2.30;96.10;;;;;;5037400;28;20056;-74
2021/01/13 06:36:49;;;;;;;9.07;1.45;;;2.30;95.90;;;;;;5050418;28;20031;-74
2021/01/13 06:39:16;;;;;;;7.63;1.60;;;2.20;95.90;;;;;;5032568;28;20262;-74
2021/01/13 06:41:49;;;;;;;11.10;1.35;;;2.20;95.80;;;;;;5028280;28;20036;-74
2021/01/13 06:44:16;;;;;;;10.27;2.65;;;2.30;95.50;;;;;;5028961;28;20127;-74
2021/01/13 06:46:43;;;;;;;10.38;1.50;;;2.30;95.40;;;;;;5028745;28;20426;-74
2021/01/13 06:49:18;;;;;;;12.80;1.80;;;2.30;95.40;;;;;;5031934;28;20048;-74
2021/01/13 06:51:45;;;;;;;9.57;1.63;;;2.30;95.50;;;;;;5048346;28;20025;-74
2021/01/13 06:54:13;;;;;;;6.78;1.80;;;2.30;95.50;;;;;;5048194;28;20025;-74
2021/01/13 06:56:51;;;;;;;5.68;1.27;;;2.30;95.30;;;;;;5048506;28;20041;-74
2021/01/13 06:59:19;;;;;;;8.32;1.60;;;2.30;95.30;;;;;;5050535;28;20036;-74
2021/01/13 07:02:11;;;;;;;8.60;2.58;;;2.20;95.50;;;;;;5049200;28;20037;-74
2021/01/13 07:04:45;;;;;;;16.55;1.85;;;2.30;95.50;;;;;;5043436;28;20030;-75
2021/01/13 07:07:14;;;;;;;10.38;1.40;;;2.30;95.20;;;;;;5028877;28;20030;-74
2021/01/13 07:09:45;;;;;;;8.68;1.30;;;2.30;95.30;;;;;;5029139;28;20369;-74
2021/01/13 07:12:13;;;;;;;10.95;1.45;;;2.30;95.00;;;;;;5029559;28;20380;-73
2021/01/13 07:14:44;;;;;;;11.05;1.77;;;2.30;94.90;;;;;;5029248;28;20030;-73
2021/01/13 07:17:14;;;;;;;9.55;1.38;;;2.40;94.60;;;;;;5029936;28;20124;-74
2021/01/13 07:19:44;;;;;;;7.07;1.60;;;2.40;94.60;;;;;;5030818;28;20698;-74
2021/01/13 07:22:11;;;;;;;8.35;1.63;;;2.40;94.80;;;;;;5029295;28;20038;-74
2021/01/13 07:24:36;;;;;;;9.35;1.80;;;2.30;94.70;;;;;;5029281;28;20384;-75
2021/01/13 07:27:02;;;;;;;2.72;1.08;;;2.30;95.30;;;;;;5028596;28;20034;-74
2021/01/13 07:29:28;;;;;;;7.60;1.42;;;2.30;95.00;;;;;;5029101;28;20040;-75
2021/01/13 07:31:55;;;;;;;12.50;2.30;;;2.30;95.00;;;;;;5029158;28;20182;-74
2021/01/13 07:34:33;;;;;;;10.02;2.15;;;2.30;95.10;;;;;;5029292;28;20591;-75
2021/01/13 07:37:01;;;;;;;6.60;1.67;;;2.20;95.20;;;;;;5029497;28;20179;-76
2021/01/13 07:40:00;;;;;;;5.57;1.33;;;2.20;95.10;;;;;;5034051;28;20036;-74
2021/01/13 07:42:44;;;;;;;8.63;1.77;;;2.30;94.90;;;;;;5032540;28;20029;-75
2021/01/13 07:45:18;;;;;;;6.60;1.27;;;2.20;95.10;;;;;;5032669;28;20025;-74
2021/01/13 07:47:53;;;;;;;7.47;1.90;;;2.30;95.00;;;;;;5031800;28;20123;-75
2021/01/13 07:50:19;;;;;;;6.20;1.48;;;2.30;94.90;;;;;;5032463;28;20022;-74
2021/01/13 07:52:49;;;;;;;6.38;1.75;;;2.30;94.70;;;;;;5033728;28;20028;-75
2021/01/13 07:55:17;;;;;;;9.70;1.23;;;2.30;95.10;;;;;;5033761;28;20029;-75
2021/01/13 07:57:55;;;;;;;10.95;1.98;;;2.30;95.00;;;;;;5033002;28;20113;-75
2021/01/13 08:00:46;;;;;;;9.35;1.85;;;2.30;94.70;;;;;;5030937;28;20116;-75
2021/01/13 08:03:18;;;;;;;10.88;2.63;;;2.30;95.10;;;;;;5031655;28;20025;-75
2021/01/13 08:06:22;;;;;;;8.88;1.50;;;2.30;94.70;;;;;;5034537;28;20036;-75
2021/01/13 08:09:02;;;;;;;4.10;1.05;;;2.40;94.70;;;;;;5051725;28;20023;-75
2021/01/13 08:12:13;;;;;;;16.17;2.40;;;2.40;94.50;;;;;;5038578;28;20490;-74
2021/01/13 08:15:03;;;;;;;11.40;2.47;;;2.50;94.80;;;;;;5047115;28;20038;-74
2021/01/13 08:17:43;;;;;;;10.77;2.45;;;2.50;94.60;;;;;;5032711;28;20113;-74
2021/01/13 08:20:42;;;;;;;10.40;2.33;;;2.50;94.70;;;;;;5033205;28;20025;-73
2021/01/13 08:23:16;;;;;;;4.80;1.15;;;2.60;94.30;;;;;;5032344;28;20025;-74
2021/01/13 08:25:54;;;;;;;10.40;2.20;;;2.60;94.20;;;;;;5048962;28;20088;-74
2021/01/13 08:28:21;;;;;;;6.43;1.65;;;2.60;94.20;;;;;;5032484;28;20025;-74
2021/01/13 08:30:51;;;;;;;5.63;1.45;;;2.60;94.20;;;;;;5039905;28;20044;-74
2021/01/13 08:33:23;;;;;;;10.23;2.00;;;2.70;94.30;;;;;;5053168;28;20036;-74
2021/01/13 08:35:56;;;;;;;6.45;1.98;;;2.70;94.40;;;;;;5047512;28;20025;-74
2021/01/13 08:38:23;;;;;;;10.38;2.53;;;2.70;94.40;;;;;;5051749;28;20403;-74
2021/01/13 08:40:49;;;;;;;5.57;1.77;;;2.70;94.00;;;;;;5051906;28;20033;-76
2021/01/13 08:43:17;;;;;;;5.97;1.80;;;2.70;94.10;;;;;;5051631;28;20076;-75
2021/01/13 08:45:44;;;;;;;5.70;1.83;;;2.80;94.10;;;;;;5035654;28;20057;-75
2021/01/13 08:48:22;;;;;;;7.68;2.20;;;2.80;94.60;;;;;;5031847;28;20677;-76
2021/01/13 08:51:03;;;;;;;8.88;1.67;;;2.70;94.60;;;;;;5032861;28;20045;-75
2021/01/13 08:53:29;;;;;;;6.60;1.80;;;2.70;94.50;;;;;;5031613;28;20032;-75
2021/01/13 08:55:55;;;;;;;11.98;2.15;;;2.90;94.30;;;;;;5032766;28;20026;-75
2021/01/13 08:58:34;;;;;;;8.23;1.75;;;2.90;94.40;;;;;;5030798;28;20091;-74
2021/01/13 09:01:09;;;;;;;8.43;1.88;;;2.90;94.40;;;;;;5032723;28;20048;-75
2021/01/13 09:03:39;;;;;;;7.38;1.85;;;2.90;94.20;;;;;;5031407;28;20026;-75
2021/01/13 09:06:18;;;;;;;15.05;3.92;;;2.90;93.90;;;;;;5045359;28;20465;-75
2021/01/13 09:08:49;;;;;;;14.15;2.30;;;3.00;93.90;;;;;;5051143;28;20021;-76
2021/01/13 09:11:33;;;;;;;6.90;2.60;;;3.10;93.80;;;;;;5036937;28;20057;-75
2021/01/13 09:14:18;;;;;;;8.02;2.20;;;3.20;93.40;;;;;;5052514;28;20071;-76
2021/01/13 09:16:54;;;;;;;7.82;1.70;;;3.20;93.40;;;;;;5031846;28;20025;-77
2021/01/13 09:19:35;;;;;;;12.65;2.42;;;3.20;93.30;;;;;;5032121;28;20022;-75
2021/01/13 09:22:06;;;;;;;9.90;2.05;;;3.20;93.20;;;;;;5048556;28;20395;-77
2021/01/13 09:24:56;;;;;;;7.28;2.58;;;3.20;93.40;;;;;;5044542;28;20258;-75
2021/01/13 09:27:35;;;;;;;7.72;1.92;;;3.20;93.60;;;;;;5042685;28;20375;-76
2021/01/13 09:30:08;;;;;;;11.02;2.85;;;3.30;93.30;;;;;;5030965;28;20442;-77
2021/01/13 09:32:50;;;;;;;9.75;2.40;;;3.40;92.90;;;;;;5031830;28;20021;-77
2021/01/13 09:35:28;;;;;;;8.75;2.50;;;3.40;92.80;;;;;;5042042;28;20071;-77
2021/01/13 09:38:16;;;;;;;14.23;2.70;;;3.40;93.00;;;;;;5050352;28;20506;-76
2021/01/13 09:41:07;;;;;;;5.57;1.63;;;3.50;92.80;;;;;;5051359;28;20443;-73
2021/01/13 09:44:12;;;;;;;12.15;2.72;;;3.50;92.70;;;;;;5049953;28;20021;-73
2021/01/13 09:46:39;;;;;;;6.45;2.00;;;3.50;92.60;;;;;;5050025;28;20028;-76
2021/01/13 09:49:10;;;;;;;18.58;4.72;;;3.50;92.60;;;;;;5050243;28;20071;-72
2021/01/13 09:51:40;;;;;;;12.10;2.00;;;3.70;92.90;;;;;;5050046;28;20021;-73
2021/01/13 09:54:07;;;;;;;5.65;1.52;;;3.90;92.30;;;;;;5049959;28;20503;-73
2021/01/13 09:56:36;;;;;;;9.75;2.15;;;3.70;92.00;;;;;;5049391;28;20025;-73
2021/01/13 09:59:06;;;;;;;12.55;2.10;;;3.80;92.10;;;;;;5050750;28;20029;-74
2021/01/13 10:01:36;;;;;;;8.27;1.75;;;3.90;92.00;;;;;;5049646;28;20074;-74
2021/01/13 10:04:08;;;;;;;6.55;1.80;;;3.90;91.70;;;;;;5049925;28;20483;-72
2021/01/13 10:06:41;;;;;;;8.48;2.05;;;3.90;91.80;;;;;;5049168;28;20021;-73
2021/01/13 10:09:12;;;;;;;7.57;2.35;;;3.90;92.00;;;;;;5039252;28;20021;-73
2021/01/13 10:11:38;;;;;;;5.72;1.65;;;3.90;92.10;;;;;;5029866;28;20025;-72
2021/01/13 10:14:06;;;;;;;12.75;2.90;;;3.90;92.10;;;;;;5029915;28;20060;-73
2021/01/13 10:16:32;;;;;;;14.45;2.53;;;3.90;92.00;;;;;;5029374;28;20048;-74
2021/01/13 10:18:58;;;;;;;6.07;1.73;;;4.00;92.30;;;;;;5030098;28;20029;-74
2021/01/13 10:21:32;;;;;;;6.10;2.13;;;3.90;92.10;;;;;;5029904;28;20021;-71
2021/01/13 10:24:09;;;;;;;8.70;2.00;;;3.90;92.60;;;;;;5031406;28;20022;-71
2021/01/13 10:26:43;;;;;;;9.00;2.35;;;4.00;92.10;;;;;;5028348;28;20021;-72
2021/01/13 10:29:11;;;;;;;7.07;1.98;;;4.00;92.10;;;;;;5029563;28;20028;-73
2021/01/13 10:31:37;;;;;;;7.35;2.10;;;3.90;92.10;;;;;;5029581;28;20042;-72
2021/01/13 10:34:03;;;;;;;11.13;2.72;;;3.90;92.40;;;;;;5029615;28;20026;-72
2021/01/13 10:36:29;;;;;;;10.85;2.90;;;3.90;92.50;;;;;;5029073;28;20030;-73
2021/01/13 10:38:56;;;;;;;9.75;1.77;;;3.90;92.40;;;;;;5029614;28;20387;-73
2021/01/13 10:41:29;;;;;;;9.18;1.52;;;4.00;92.00;;;;;;5030816;28;20025;-73
2021/01/13 10:44:00;;;;;;;6.65;1.75;;;4.20;91.90;;;;;;5030696;28;20451;-74
2021/01/13 10:46:30;;;;;;;6.60;1.90;;;4.30;91.50;;;;;;5030558;28;20022;-75
2021/01/13 10:49:01;;;;;;;11.48;2.10;;;4.30;91.60;;;;;;5029529;28;20550;-74
2021/01/13 10:51:36;;;;;;;5.97;1.95;;;4.40;91.40;;;;;;5030421;28;20045;-74
2021/01/13 10:54:05;;;;;;;6.03;2.17;;;4.60;91.30;;;;;;5029349;28;20396;-73
2021/01/13 10:56:33;;;;;;;5.22;1.77;;;4.60;91.40;;;;;;5028617;28;20045;-73
2021/01/13 10:59:03;;;;;;;8.50;2.38;;;4.50;92.10;;;;;;5029133;28;20037;-73
2021/01/13 11:01:30;;;;;;;7.50;1.80;;;4.30;92.30;;;;;;5029225;28;20030;-74
2021/01/13 11:03:56;;;;;;;9.75;2.88;;;4.20;92.60;;;;;;5030686;28;20029;-73
2021/01/13 11:06:24;;;;;;;5.45;1.83;;;4.20;92.90;;;;;;5028671;28;20396;-72
2021/01/13 11:08:53;;;;;;;6.38;1.58;;;4.20;93.20;;;;;;5030475;28;20033;-74
2021/01/13 11:11:19;;;;;;;5.15;2.35;;;4.00;93.70;;;;;;5030646;28;20021;-75
2021/01/13 11:13:46;;;;;;;4.80;1.75;;;3.80;93.90;;;;;;5049924;28;20024;-73
2021/01/13 11:16:12;;;;;;;7.68;2.60;;;3.80;94.00;;;;;;5053503;28;20357;-74
2021/01/13 11:18:40;;;;;;;9.10;2.47;;;3.70;94.70;;;;;;5052605;28;20024;-74
2021/01/13 11:21:08;;;;;;;6.07;2.22;;;3.70;94.70;;;;;;5054058;28;20021;-73
2021/01/13 11:23:45;;;;;;;8.93;2.10;;;3.80;94.10;;;;;;5053959;28;20108;-73
2021/01/13 11:26:12;;;;;;;10.52;2.28;;;3.80;94.30;;;;;;5053156;28;20036;-74
2021/01/13 11:28:43;;;;;;;6.47;2.42;;;3.80;94.00;;;;;;5052550;28;20056;-73
2021/01/13 11:31:11;;;;;;;4.43;1.58;;;3.80;94.60;;;;;;5053875;28;20029;-73
2021/01/13 11:33:45;;;;;;;4.80;1.40;;;3.80;94.10;;;;;;5052480;28;20116;-74
2021/01/13 11:36:10;;;;;;;5.07;1.60;;;3.80;93.90;;;;;;5052052;28;20051;-73
2021/01/13 11:38:50;;;;;;;6.35;2.42;;;3.80;93.90;;;;;;5052463;28;20471;-73
2021/01/13 11:41:31;;;;;;;7.00;2.13;;;3.90;94.00;;;;;;5052323;28;20099;-73
2021/01/13 11:44:35;;;;;;;9.13;2.55;;;4.00;93.30;;;;;;5053607;28;20032;-74
2021/01/13 11:47:20;;;;;;;4.25;1.65;;;4.10;93.20;;;;;;5051466;28;20021;-74
2021/01/13 11:49:52;;;;;;;8.40;2.53;;;4.00;93.10;;;;;;5052141;28;20029;-73
2021/01/13 11:52:19;;;;;;;5.10;1.95;;;4.00;93.50;;;;;;5052177;28;20051;-73
2021/01/13 11:54:55;;;;;;;4.45;1.83;;;4.00;93.30;;;;;;5053417;28;20029;-73
2021/01/13 11:57:34;;;;;;;7.45;2.25;;;4.00;93.30;;;;;;5051297;28;20032;-73
2021/01/13 12:00:15;;;;;;;7.35;2.83;;;4.00;93.30;;;;;;5051739;28;20045;-73
2021/01/13 12:02:44;;;;;;;9.07;2.42;;;4.00;93.40;;;;;;5051878;28;20068;-74
2021/01/13 12:05:24;;;;;;;5.97;2.20;;;4.00;93.20;;;;;;5051932;28;20082;-73
2021/01/13 12:07:56;;;;;;;5.13;1.60;;;4.00;92.90;;;;;;5051361;28;20082;-74
2021/01/13 12:10:21;;;;;;;5.53;2.17;;;4.00;92.60;;;;;;5051955;28;20436;-74
2021/01/13 12:12:47;;;;;;;6.07;1.70;;;4.10;92.60;;;;;;5051963;28;20059;-74
2021/01/13 12:15:13;;;;;;;4.45;1.77;;;4.10;93.10;;;;;;5052078;28;20029;-73
2021/01/13 12:17:52;;;;;;;5.15;1.80;;;4.10;92.60;;;;;;5051278;28;20036;-73
2021/01/13 12:20:33;;;;;;;6.00;1.98;;;4.10;93.10;;;;;;5051843;28;20057;-74
2021/01/13 12:22:58;;;;;;;3.55;1.42;;;4.10;92.50;;;;;;5051340;28;20025;-74
2021/01/13 12:25:25;;;;;;;6.25;2.17;;;4.20;92.70;;;;;;5053365;28;20029;-74
2021/01/13 12:28:07;;;;;;;4.55;2.10;;;4.20;92.80;;;;;;5051105;28;20029;-73
2021/01/13 12:30:33;;;;;;;7.53;1.88;;;4.00;93.00;;;;;;5051576;28;20028;-72
2021/01/13 12:33:01;;;;;;;8.63;2.33;;;3.90;93.10;;;;;;5051609;28;20496;-73
2021/01/13 12:35:30;;;;;;;7.35;2.33;;;3.90;93.20;;;;;;5051694;28;20176;-74
2021/01/13 12:37:57;;;;;;;3.17;1.67;;;3.90;93.20;;;;;;5050692;28;20047;-74
2021/01/13 12:40:32;;;;;;;5.80;2.20;;;3.80;93.30;;;;;;5052680;28;20498;-74
2021/01/13 12:43:34;;;;;;;4.90;1.85;;;3.70;93.60;;;;;;5051238;28;20032;-74
2021/01/13 12:45:59;;;;;;;6.38;1.70;;;3.70;93.90;;;;;;5012964;28;20064;-73
2021/01/13 12:48:25;;;;;;;8.00;2.10;;;3.70;93.90;;;;;;5029753;28;20042;-73
2021/01/13 12:50:50;;;;;;;3.38;1.40;;;3.90;93.80;;;;;;5029990;28;20028;-74
2021/01/13 12:53:16;;;;;;;4.60;1.38;;;4.00;93.10;;;;;;5029856;28;20650;-72
2021/01/13 12:55:41;;;;;;;4.63;1.70;;;4.10;92.90;;;;;;5009957;28;20034;-72
2021/01/13 12:58:08;;;;;;;6.63;1.77;;;4.10;92.90;;;;;;5013213;28;20030;-74
2021/01/13 13:00:33;;;;;;;8.77;2.13;;;4.10;93.10;;;;;;4993479;28;20050;-74
2021/01/13 13:02:59;;;;;;;2.95;1.30;;;4.10;92.80;;;;;;4993502;28;20524;-73
2021/01/13 13:05:24;;;;;;;5.72;1.75;;;4.10;92.50;;;;;;4993318;28;20026;-73
2021/01/13 13:07:50;;;;;;;7.60;2.63;;;4.10;92.40;;;;;;4992757;28;20092;-73
2021/01/13 13:10:15;;;;;;;7.25;1.88;;;4.10;92.20;;;;;;4993397;28;20485;-73
2021/01/13 13:12:41;;;;;;;4.22;1.13;;;4.10;91.90;;;;;;5009998;28;20093;-72
2021/01/13 13:15:07;;;;;;;6.63;1.63;;;4.00;91.70;;;;;;4993354;28;20048;-73
2021/01/13 13:17:32;;;;;;;10.40;2.17;;;4.00;92.00;;;;;;5009100;28;20156;-73